Time;durP1;ratioP1;P1;durP2;ratioP2;P2;SDS_P1;SDS_P2;PMS_P1;PMS_P2;Temp;Humidity;BMP_temperature;BMP_pressure;BME280_temperature;BME280_humidity;BME280_pressure;Samples;Min_cycle;Max_cycle;Signal;HPM_P1;HPM_P2
2021/11/07 00:00:22;;;;;;;10.82;3.20;;;17.70;74.10;;;;;;4988571;28;95775;-36
2021/11/07 00:05:37;;;;;;;14.57;3.65;;;17.70;74.20;;;;;;4990408;28;95775;-38
2021/11/07 00:11:02;;;;;;;15.57;3.90;;;17.70;74.10;;;;;;4988097;28;95795;-40
2021/11/07 00:13:34;;;;;;;6.88;2.42;;;17.80;74.90;;;;;;4989598;28;95930;-42
2021/11/07 00:16:11;;;;;;;14.45;3.08;;;17.80;75.00;;;;;;4989759;28;97668;-40
2021/11/07 00:18:48;;;;;;;18.55;3.60;;;17.80;75.10;;;;;;4985436;28;96030;-37
2021/11/07 00:21:24;;;;;;;9.43;2.10;;;17.90;75.10;;;;;;4989673;28;95558;-39
2021/11/07 00:24:09;;;;;;;18.73;3.60;;;17.90;75.10;;;;;;4990786;28;96268;-40
2021/11/07 00:26:50;;;;;;;13.65;3.75;;;17.90;75.20;;;;;;4989010;28;95833;-38
2021/11/07 00:29:30;;;;;;;11.20;2.92;;;17.90;75.10;;;;;;4977652;28;95492;-39
2021/11/07 00:37:13;;;;;;;17.83;2.92;;;17.90;74.50;;;;;;4990711;28;96055;-41
2021/11/07 00:39:48;;;;;;;9.75;2.70;;;17.90;74.30;;;;;;4989416;28;95397;-39
2021/11/07 00:42:34;;;;;;;14.27;4.07;;;17.90;74.20;;;;;;4985268;28;95654;-40
2021/11/07 00:45:24;;;;;;;18.73;3.50;;;17.90;74.00;;;;;;4985759;28;96946;-43
2021/11/07 00:48:23;;;;;;;8.85;2.80;;;17.90;74.00;;;;;;4988883;28;98093;-37
2021/11/07 00:51:06;;;;;;;12.30;3.38;;;17.90;71.60;;;;;;4987077;28;96405;-37
2021/11/07 01:01:41;;;;;;;10.75;2.80;;;18.00;74.10;;;;;;4985626;28;95769;-39
2021/11/07 01:04:14;;;;;;;11.63;2.75;;;18.00;73.90;;;;;;4988568;28;97914;-38
2021/11/07 01:06:46;;;;;;;6.20;2.60;;;18.10;73.90;;;;;;4989580;28;95880;-42
2021/11/07 01:09:17;;;;;;;7.97;2.80;;;18.10;71.30;;;;;;4988592;28;95486;-38
2021/11/07 01:11:51;;;;;;;9.93;2.55;;;18.10;73.70;;;;;;4989686;28;95210;-35
2021/11/07 01:14:22;;;;;;;9.80;2.70;;;18.20;73.60;;;;;;4988415;28;95756;-34
2021/11/07 01:16:53;;;;;;;5.32;2.00;;;18.20;73.40;;;;;;4989512;28;96452;-41
2021/11/07 01:19:24;;;;;;;8.07;3.03;;;18.20;73.30;;;;;;4987695;28;95803;-37
2021/11/07 01:21:58;;;;;;;8.38;2.90;;;18.30;73.10;;;;;;4988921;28;95606;-40
2021/11/07 01:24:34;;;;;;;10.80;2.60;;;18.30;73.10;;;;;;5002832;28;95905;-34
2021/11/07 01:27:21;;;;;;;7.13;1.90;;;18.30;73.10;;;;;;4990136;28;96126;-36
2021/11/07 01:29:54;;;;;;;6.05;2.03;;;18.30;73.00;;;;;;4977202;28;95920;-39
2021/11/07 01:32:25;;;;;;;9.40;2.72;;;18.40;72.90;;;;;;4986792;28;95629;-35
2021/11/07 01:38:11;;;;;;;5.55;2.03;;;18.40;72.70;;;;;;5015908;27;96395;-40
2021/11/07 01:43:32;;;;;;;7.88;1.98;;;18.40;72.70;;;;;;4984997;28;95468;-36
2021/11/07 01:49:09;;;;;;;5.70;1.65;;;18.50;72.40;;;;;;4986888;28;95444;-42
2021/11/07 01:51:48;;;;;;;7.68;2.38;;;18.50;72.30;;;;;;4988957;28;95882;-37
2021/11/07 01:54:25;;;;;;;7.40;2.58;;;18.50;72.20;;;;;;4988853;28;95781;-39
2021/11/07 01:56:56;;;;;;;7.22;2.10;;;18.50;72.10;;;;;;4988996;28;95834;-41
2021/11/07 01:59:27;;;;;;;5.78;1.88;;;18.50;72.10;;;;;;4988892;28;95942;-36
2021/11/07 02:02:01;;;;;;;5.20;1.85;;;18.50;72.00;;;;;;4988332;28;95631;-37
2021/11/07 02:04:34;;;;;;;5.55;1.60;;;18.50;72.10;;;;;;4985109;28;95949;-37
2021/11/07 02:10:12;;;;;;;6.03;2.00;;;18.60;72.00;;;;;;4988436;28;95900;-36
2021/11/07 02:12:47;;;;;;;4.47;2.05;;;18.60;71.90;;;;;;4987070;28;95715;-39
2021/11/07 02:15:22;;;;;;;5.95;1.45;;;18.60;71.80;;;;;;4984230;28;95712;-38
2021/11/07 02:17:53;;;;;;;5.47;1.83;;;18.60;71.90;;;;;;4988980;28;95799;-41
2021/11/07 02:20:38;;;;;;;8.07;2.22;;;18.60;69.40;;;;;;4987310;28;96630;-39
2021/11/07 02:23:12;;;;;;;7.80;2.10;;;18.60;71.80;;;;;;4994166;28;96059;-41
2021/11/07 02:25:44;;;;;;;5.63;1.63;;;18.70;71.80;;;;;;4989068;28;96144;-40
2021/11/07 02:28:40;;;;;;;5.97;2.33;;;18.70;71.70;;;;;;4980777;28;95773;-39
2021/11/07 02:31:17;;;;;;;6.50;1.60;;;18.70;71.60;;;;;;4981474;28;95966;-40
2021/11/07 02:33:48;;;;;;;2.80;1.50;;;18.70;71.60;;;;;;4985387;28;96053;-40
2021/11/07 02:36:20;;;;;;;6.70;1.58;;;18.70;71.60;;;;;;4989028;28;95321;-36
2021/11/07 02:38:53;;;;;;;5.03;2.05;;;18.70;71.60;;;;;;4988493;28;95424;-41
2021/11/07 02:41:27;;;;;;;5.18;2.15;;;18.80;71.60;;;;;;4988412;28;96362;-39
2021/11/07 02:43:58;;;;;;;2.50;1.50;;;18.80;71.50;;;;;;4985760;28;96078;-37
2021/11/07 02:46:29;;;;;;;5.03;2.70;;;18.80;71.50;;;;;;4988562;28;95974;-41
2021/11/07 02:49:03;;;;;;;4.25;1.80;;;18.80;71.40;;;;;;4989962;28;95829;-39
2021/11/07 02:51:37;;;;;;;4.10;1.20;;;18.80;71.40;;;;;;4987282;28;96759;-40
2021/11/07 02:54:09;;;;;;;6.57;1.95;;;18.80;71.40;;;;;;4989029;28;95960;-40
2021/11/07 02:56:38;;;;;;;5.13;1.75;;;18.80;71.30;;;;;;4989849;28;95460;-40
2021/11/07 02:59:16;;;;;;;5.20;1.70;;;18.80;71.40;;;;;;4987461;28;99743;-38
2021/11/07 03:01:50;;;;;;;3.72;1.60;;;18.90;71.40;;;;;;4985319;28;95968;-39
2021/11/07 03:04:22;;;;;;;3.90;1.52;;;18.80;71.40;;;;;;4985325;28;95567;-38
2021/11/07 03:06:54;;;;;;;3.75;1.60;;;18.80;71.30;;;;;;4988095;28;95319;-41
2021/11/07 03:09:31;;;;;;;4.85;1.83;;;18.90;71.20;;;;;;4986233;28;95650;-40
2021/11/07 03:12:05;;;;;;;4.45;1.58;;;18.90;71.30;;;;;;4988177;28;95968;-42
2021/11/07 03:14:48;;;;;;;3.22;1.67;;;18.90;71.20;;;;;;4985489;28;95668;-38
2021/11/07 03:17:23;;;;;;;2.28;1.30;;;18.90;71.20;;;;;;4987250;28;95706;-36
2021/11/07 03:19:54;;;;;;;7.32;2.03;;;19.00;71.30;;;;;;4986774;28;101269;-40
2021/11/07 03:22:30;;;;;;;2.90;1.83;;;18.90;71.10;;;;;;4986436;28;95862;-42
2021/11/07 03:25:03;;;;;;;6.38;2.28;;;19.00;71.20;;;;;;4986997;28;95669;-37
2021/11/07 03:27:39;;;;;;;2.78;1.40;;;19.00;68.70;;;;;;4982832;28;97863;-38
2021/11/07 03:33:23;;;;;;;4.38;1.50;;;19.00;71.00;;;;;;4986580;28;96231;-41
2021/11/07 03:36:02;;;;;;;3.47;1.80;;;19.10;71.10;;;;;;4985249;28;96030;-39
2021/11/07 03:38:35;;;;;;;5.05;1.85;;;19.10;71.10;;;;;;4987642;28;95867;-41
2021/11/07 03:41:10;;;;;;;2.97;1.50;;;19.10;71.00;;;;;;4985345;28;95636;-42
2021/11/07 03:43:42;;;;;;;3.78;1.13;;;19.10;71.00;;;;;;4982905;28;99224;-37
2021/11/07 03:46:14;;;;;;;3.10;1.30;;;19.10;71.00;;;;;;4988100;28;95756;-39
2021/11/07 03:48:46;;;;;;;4.38;1.42;;;19.10;71.00;;;;;;4988216;28;99123;-38
2021/11/07 03:51:16;;;;;;;3.95;1.67;;;19.10;71.00;;;;;;4986723;28;95881;-39
2021/11/07 03:53:47;;;;;;;5.80;2.05;;;19.20;71.00;;;;;;4983507;28;96685;-39
2021/11/07 03:56:18;;;;;;;4.28;1.67;;;19.10;71.00;;;;;;4988699;28;95740;-37
2021/11/07 03:58:49;;;;;;;4.25;1.55;;;19.10;70.90;;;;;;4986811;28;96569;-36
2021/11/07 04:01:20;;;;;;;;;;;19.20;70.90;;;;;;4982959;28;96054;-39
2021/11/07 04:03:51;;;;;;;2.92;1.38;;;19.20;71.00;;;;;;4978055;28;96011;-39
2021/11/07 04:06:23;;;;;;;2.97;1.40;;;19.20;70.90;;;;;;4974319;28;95342;-40
2021/11/07 04:08:56;;;;;;;3.05;1.40;;;19.20;70.90;;;;;;4984774;28;95918;-38
2021/11/07 04:11:28;;;;;;;5.78;1.50;;;19.20;70.90;;;;;;4983140;28;96249;-39
2021/11/07 04:13:59;;;;;;;2.13;1.27;;;19.20;70.90;;;;;;4981757;28;95825;-39
2021/11/07 04:16:31;;;;;;;4.25;1.92;;;19.20;70.90;;;;;;4989491;28;95799;-40
2021/11/07 04:19:02;;;;;;;2.72;1.50;;;19.20;70.90;;;;;;4988978;28;95327;-38
2021/11/07 04:21:33;;;;;;;;;;;19.20;70.80;;;;;;4989381;28;95313;-39
2021/11/07 04:24:03;;;;;;;3.38;1.55;;;19.30;70.90;;;;;;4986996;28;95874;-39
2021/11/07 04:26:33;;;;;;;3.43;1.63;;;19.30;70.80;;;;;;4989510;28;95815;-38
2021/11/07 04:29:04;;;;;;;2.47;1.42;;;19.30;70.90;;;;;;4978413;28;95950;-37
2021/11/07 04:31:34;;;;;;;3.00;1.75;;;19.30;70.70;;;;;;4981959;28;95515;-36
2021/11/07 04:34:04;;;;;;;3.33;1.33;;;19.30;70.80;;;;;;4990437;28;96462;-40
2021/11/07 04:36:34;;;;;;;2.50;1.50;;;19.30;70.70;;;;;;4988643;28;95557;-40
2021/11/07 04:39:05;;;;;;;4.03;1.50;;;19.30;70.70;;;;;;4972815;28;95852;-36
2021/11/07 04:41:37;;;;;;;;;;;19.30;70.70;;;;;;4986739;28;95408;-39
2021/11/07 04:44:08;;;;;;;;;;;19.40;70.70;;;;;;4990254;28;96080;-40
2021/11/07 04:46:39;;;;;;;3.58;1.45;;;19.40;70.70;;;;;;4988961;28;96410;-39
2021/11/07 04:49:13;;;;;;;2.45;1.17;;;19.40;70.70;;;;;;4987161;28;95550;-37
2021/11/07 04:51:45;;;;;;;2.72;1.15;;;19.40;70.60;;;;;;4987172;28;95789;-40
2021/11/07 04:54:18;;;;;;;4.50;1.35;;;19.40;70.60;;;;;;4990041;28;96039;-41
2021/11/07 04:56:49;;;;;;;3.33;1.35;;;19.40;68.10;;;;;;4986635;28;95827;-41
2021/11/07 04:59:21;;;;;;;2.55;1.75;;;19.40;70.60;;;;;;4986543;28;95725;-34
2021/11/07 05:01:52;;;;;;;;;;;19.40;70.70;;;;;;4983591;28;95557;-40
2021/11/07 05:04:24;;;;;;;3.97;1.40;;;19.40;70.60;;;;;;4989563;28;96333;-38
2021/11/07 05:06:57;;;;;;;3.10;1.95;;;19.40;68.50;;;;;;4988459;28;95640;-39
2021/11/07 05:09:28;;;;;;;2.88;1.40;;;19.40;70.50;;;;;;4989363;28;95808;-35
2021/11/07 05:12:01;;;;;;;3.33;1.45;;;19.40;70.50;;;;;;5005189;28;95447;-40
2021/11/07 05:14:33;;;;;;;2.50;1.40;;;19.40;70.50;;;;;;4987645;28;96339;-39
2021/11/07 05:17:05;;;;;;;4.90;1.52;;;19.40;70.50;;;;;;4986111;28;95958;-38
2021/11/07 05:19:36;;;;;;;2.97;1.38;;;19.40;70.40;;;;;;4987765;28;95747;-40
2021/11/07 05:22:08;;;;;;;4.72;1.83;;;19.50;68.00;;;;;;4990011;28;98068;-43
2021/11/07 05:24:37;;;;;;;2.93;1.23;;;19.40;70.40;;;;;;4985180;28;96060;-43
2021/11/07 05:27:07;;;;;;;4.53;1.45;;;19.50;70.40;;;;;;4989100;28;95961;-39
2021/11/07 05:29:37;;;;;;;3.13;1.35;;;19.50;70.40;;;;;;4976736;28;96078;-38
2021/11/07 05:32:09;;;;;;;3.55;1.30;;;19.40;70.30;;;;;;4984788;28;95807;-42
2021/11/07 05:34:41;;;;;;;5.03;1.73;;;19.50;70.40;;;;;;4986029;28;96700;-38
2021/11/07 05:37:11;;;;;;;3.67;1.42;;;19.50;67.90;;;;;;4978918;28;96111;-42
2021/11/07 05:39:41;;;;;;;7.13;1.40;;;19.50;70.30;;;;;;4987601;28;95570;-38
2021/11/07 05:42:12;;;;;;;3.53;1.73;;;19.50;70.30;;;;;;4988070;28;95745;-38
2021/11/07 05:44:43;;;;;;;4.50;1.60;;;19.50;70.30;;;;;;4979367;28;96387;-40
2021/11/07 05:47:16;;;;;;;3.60;1.60;;;19.50;70.20;;;;;;4987816;28;95664;-37
2021/11/07 05:49:46;;;;;;;2.95;1.40;;;19.50;70.20;;;;;;4985477;28;95956;-41
2021/11/07 05:52:17;;;;;;;3.28;1.20;;;19.50;70.20;;;;;;4990738;28;96143;-38
2021/11/07 05:54:48;;;;;;;3.08;1.77;;;19.50;70.20;;;;;;4989364;28;99017;-40
2021/11/07 05:57:18;;;;;;;3.42;1.45;;;19.50;70.20;;;;;;4981946;28;96371;-36
2021/11/07 05:59:49;;;;;;;3.67;1.33;;;19.50;70.20;;;;;;4986906;28;96151;-40
2021/11/07 06:02:20;;;;;;;6.10;1.58;;;19.50;70.20;;;;;;4978070;28;95769;-38
2021/11/07 06:04:51;;;;;;;4.53;1.83;;;19.50;70.10;;;;;;4984881;28;96775;-38
2021/11/07 06:07:23;;;;;;;2.60;1.50;;;19.50;70.10;;;;;;4987973;28;95907;-42
2021/11/07 06:09:54;;;;;;;2.53;1.27;;;19.50;70.10;;;;;;4989418;28;95789;-39
2021/11/07 06:12:25;;;;;;;4.60;1.20;;;19.50;67.60;;;;;;4987292;28;95636;-40
2021/11/07 06:14:56;;;;;;;2.70;1.48;;;19.50;70.10;;;;;;4985252;28;96659;-37
2021/11/07 06:17:27;;;;;;;4.63;1.60;;;19.50;70.10;;;;;;4988042;28;95878;-39
2021/11/07 06:19:59;;;;;;;2.65;1.33;;;19.50;70.10;;;;;;4987363;28;95909;-40
2021/11/07 06:22:30;;;;;;;3.08;1.45;;;19.50;70.70;;;;;;4987864;28;95413;-40
2021/11/07 06:25:00;;;;;;;5.65;2.00;;;19.50;70.10;;;;;;4986681;28;98445;-42
2021/11/07 06:27:30;;;;;;;2.88;1.58;;;19.50;67.60;;;;;;4986151;28;95817;-41
2021/11/07 06:30:01;;;;;;;3.63;1.65;;;19.50;70.00;;;;;;4971122;28;95433;-40
2021/11/07 06:32:31;;;;;;;3.22;1.42;;;19.50;70.00;;;;;;5018913;27;96105;-39
2021/11/07 06:35:01;;;;;;;3.33;1.30;;;19.50;69.90;;;;;;4985695;28;95891;-42
2021/11/07 06:37:31;;;;;;;2.60;1.13;;;19.50;69.90;;;;;;4983525;28;97221;-40
2021/11/07 06:40:02;;;;;;;2.17;0.98;;;19.50;69.90;;;;;;4986648;28;95808;-37
2021/11/07 06:42:33;;;;;;;;;;;19.50;69.90;;;;;;4989929;28;95721;-41
2021/11/07 06:45:04;;;;;;;4.10;1.60;;;19.50;69.80;;;;;;4985803;28;96038;-40
2021/11/07 06:47:35;;;;;;;6.03;1.48;;;19.50;69.80;;;;;;4986821;28;95727;-42
2021/11/07 06:50:07;;;;;;;3.08;1.55;;;19.50;69.80;;;;;;4987422;28;95352;-39
2021/11/07 06:52:41;;;;;;;2.42;1.02;;;19.50;69.70;;;;;;4986782;28;95888;-42
2021/11/07 06:55:12;;;;;;;4.70;1.33;;;19.50;69.70;;;;;;4987570;28;96029;-42
2021/11/07 06:57:43;;;;;;;2.25;0.93;;;19.40;69.70;;;;;;4987775;28;95809;-40
2021/11/07 07:00:18;;;;;;;5.65;1.60;;;19.40;69.70;;;;;;4987572;28;95742;-38
2021/11/07 07:02:49;;;;;;;3.47;1.48;;;19.40;69.70;;;;;;4987982;28;95363;-39
2021/11/07 07:05:20;;;;;;;4.07;1.43;;;19.50;69.70;;;;;;4989073;28;95899;-42
2021/11/07 07:07:55;;;;;;;3.00;1.10;;;19.40;69.70;;;;;;4988640;28;95952;-42
2021/11/07 07:10:30;;;;;;;2.35;1.30;;;19.40;69.60;;;;;;4985676;28;95910;-41
2021/11/07 07:15:39;;;;;;;;;;;19.50;69.80;;;;;;4986818;28;96586;-40
2021/11/07 07:27:31;;;;;;;3.05;1.35;;;19.40;69.50;;;;;;4987330;28;95929;-37
2021/11/07 07:34:51;;;;;;;4.75;1.98;;;19.40;69.50;;;;;;4975371;28;95718;-41
2021/11/07 07:37:22;;;;;;;7.03;2.78;;;19.30;66.30;;;;;;4984436;28;98115;-39
2021/11/07 07:39:53;;;;;;;8.32;3.25;;;19.20;67.50;;;;;;4988179;28;95940;-41
2021/11/07 07:42:24;;;;;;;10.88;3.78;;;19.10;64.70;;;;;;4986818;28;95943;-39
2021/11/07 07:44:55;;;;;;;8.73;3.97;;;19.00;67.10;;;;;;4985645;28;95838;-39
2021/11/07 07:47:26;;;;;;;7.70;2.83;;;18.90;66.90;;;;;;4987836;28;95822;-39
2021/11/07 07:50:00;;;;;;;13.02;3.65;;;18.90;66.80;;;;;;4981775;28;96133;-42
2021/11/07 07:52:34;;;;;;;8.85;3.25;;;18.80;66.60;;;;;;4983951;28;95274;-38
2021/11/07 07:55:09;;;;;;;8.52;4.35;;;18.80;66.40;;;;;;4985547;28;97957;-41
2021/11/07 07:57:41;;;;;;;7.57;3.92;;;18.80;66.40;;;;;;4980266;28;96117;-40
2021/11/07 08:00:16;;;;;;;11.70;4.00;;;18.70;66.10;;;;;;4977438;28;97518;-40
2021/11/07 08:02:47;;;;;;;6.88;3.42;;;18.70;66.20;;;;;;4986309;28;95960;-40
2021/11/07 08:05:18;;;;;;;8.93;3.73;;;18.70;66.10;;;;;;4990226;28;95956;-39
2021/11/07 08:07:49;;;;;;;;;;;18.60;66.00;;;;;;4988912;28;96535;-38
2021/11/07 08:10:24;;;;;;;11.13;3.53;;;18.60;65.80;;;;;;4990600;28;95714;-39
2021/11/07 08:12:55;;;;;;;6.05;2.63;;;18.60;65.90;;;;;;4987797;28;95836;-41
2021/11/07 08:15:26;;;;;;;8.18;3.00;;;18.60;65.80;;;;;;4989362;28;96106;-37
2021/11/07 08:17:57;;;;;;;10.90;2.92;;;18.60;65.70;;;;;;4985845;28;96487;-42
2021/11/07 08:20:31;;;;;;;7.40;2.60;;;18.50;65.40;;;;;;4987063;28;96082;-39
2021/11/07 08:23:02;;;;;;;6.40;2.50;;;18.40;64.80;;;;;;4991035;28;95424;-41
2021/11/07 08:25:32;;;;;;;7.40;2.60;;;18.40;65.30;;;;;;4990161;28;95638;-39
2021/11/07 08:28:05;;;;;;;10.65;2.80;;;18.40;65.40;;;;;;4988472;28;95870;-42
2021/11/07 08:30:41;;;;;;;10.35;2.88;;;18.40;65.40;;;;;;4981853;28;98658;-38
2021/11/07 08:33:12;;;;;;;12.35;2.28;;;18.40;65.30;;;;;;4989508;28;95386;-41
2021/11/07 08:35:44;;;;;;;6.50;2.45;;;18.30;65.40;;;;;;4987720;28;97241;-36
2021/11/07 08:38:19;;;;;;;12.50;3.05;;;18.30;65.20;;;;;;4986250;28;95969;-37
2021/11/07 08:41:07;;;;;;;8.80;2.45;;;18.20;65.00;;;;;;4976779;28;96685;-35
2021/11/07 09:00:30;;;;;;;4.47;1.73;;;18.00;64.50;;;;;;4985989;28;96177;-38
2021/11/07 09:03:18;;;;;;;7.32;2.70;;;18.00;64.50;;;;;;4983929;28;96100;-39
2021/11/07 09:08:25;;;;;;;6.47;1.90;;;17.90;64.50;;;;;;4989857;28;95728;-38
2021/11/07 09:10:59;;;;;;;7.80;2.40;;;17.90;62.00;;;;;;4987658;28;95878;-39
2021/11/07 09:13:31;;;;;;;5.18;1.95;;;17.90;64.60;;;;;;4990124;28;96204;-41
2021/11/07 09:16:03;;;;;;;8.05;1.90;;;17.80;64.60;;;;;;4986350;28;97278;-38
2021/11/07 09:18:35;;;;;;;5.93;1.50;;;17.80;64.70;;;;;;4986591;28;95820;-37
2021/11/07 09:21:14;;;;;;;9.20;2.70;;;17.80;64.70;;;;;;4985224;28;95972;-38
2021/11/07 09:23:53;;;;;;;9.02;2.05;;;17.80;64.60;;;;;;4988845;28;95907;-40
2021/11/07 09:29:04;;;;;;;5.07;2.15;;;17.70;64.80;;;;;;4979311;28;98272;-39
2021/11/07 09:31:57;;;;;;;10.13;1.80;;;17.70;64.70;;;;;;4983649;28;96111;-40
2021/11/07 09:34:50;;;;;;;9.50;2.47;;;17.70;64.90;;;;;;4988708;28;95880;-41
2021/11/07 09:37:41;;;;;;;7.82;2.00;;;17.70;65.20;;;;;;4989155;28;95354;-38
2021/11/07 09:40:15;;;;;;;8.68;2.13;;;17.70;65.40;;;;;;4990370;28;95784;-40
2021/11/07 09:45:33;;;;;;;6.65;1.75;;;17.70;65.80;;;;;;4986654;28;96166;-37
2021/11/07 09:48:10;;;;;;;6.93;2.10;;;17.70;65.90;;;;;;4985768;28;95884;-39
2021/11/07 09:50:44;;;;;;;5.35;1.75;;;17.70;63.40;;;;;;4988378;28;96449;-38
2021/11/07 09:53:16;;;;;;;5.68;2.17;;;17.70;66.10;;;;;;4989858;28;96426;-37
2021/11/07 09:55:48;;;;;;;8.13;2.42;;;17.70;66.30;;;;;;4985676;28;97194;-42
2021/11/07 09:58:21;;;;;;;10.32;2.00;;;17.70;66.40;;;;;;4986010;28;95285;-38
2021/11/07 10:00:55;;;;;;;4.38;1.42;;;17.70;64.00;;;;;;4987743;28;95803;-41
2021/11/07 10:03:28;;;;;;;10.93;2.05;;;17.70;66.70;;;;;;4988945;28;96466;-36
2021/11/07 10:06:03;;;;;;;3.45;1.63;;;17.70;66.70;;;;;;4986831;28;95413;-39
2021/11/07 10:08:44;;;;;;;3.33;1.63;;;17.80;66.70;;;;;;4988852;28;95825;-37
2021/11/07 10:11:16;;;;;;;3.50;1.33;;;17.80;66.80;;;;;;4987631;28;96741;-39
2021/11/07 10:14:21;;;;;;;;;;;17.70;66.70;;;;;;4988321;28;97101;-35
2021/11/07 10:16:54;;;;;;;2.67;1.33;;;17.80;66.80;;;;;;4982487;28;96246;-39
2021/11/07 10:19:38;;;;;;;5.47;1.83;;;17.80;66.90;;;;;;4986557;28;96007;-40
2021/11/07 10:22:22;;;;;;;4.13;1.92;;;17.80;66.90;;;;;;4983722;28;97617;-36
2021/11/07 10:24:58;;;;;;;3.75;1.63;;;17.80;67.00;;;;;;4987153;28;95947;-38
2021/11/07 10:27:35;;;;;;;2.13;1.00;;;17.80;64.50;;;;;;4982480;28;97507;-42
2021/11/07 10:30:15;;;;;;;3.53;1.58;;;17.80;67.00;;;;;;4970793;28;95876;-38
2021/11/07 10:33:06;;;;;;;3.90;1.70;;;17.80;67.10;;;;;;4985434;28;95819;-37
2021/11/07 10:39:10;;;;;;;2.35;1.00;;;17.80;67.10;;;;;;4984545;28;95799;-41
2021/11/07 10:53:12;;;;;;;4.28;1.95;;;17.90;67.30;;;;;;4989271;28;97160;-41
2021/11/07 10:55:49;;;;;;;4.95;1.58;;;17.80;67.30;;;;;;4988438;28;96630;-37
2021/11/07 10:58:34;;;;;;;2.40;1.30;;;17.80;67.40;;;;;;4985955;28;97164;-38
2021/11/07 11:01:08;;;;;;;2.67;0.95;;;17.80;67.40;;;;;;4986492;28;95875;-39
2021/11/07 11:03:43;;;;;;;2.83;1.15;;;17.90;67.40;;;;;;4988658;28;95951;-35
2021/11/07 11:06:16;;;;;;;2.58;1.00;;;17.80;67.30;;;;;;4986288;28;95290;-41
2021/11/07 11:08:57;;;;;;;2.90;1.25;;;17.90;67.50;;;;;;4987914;28;96051;-39
2021/11/07 11:19:50;;;;;;;2.33;1.00;;;17.80;67.50;;;;;;4985563;28;96453;-41
2021/11/07 11:33:31;;;;;;;2.50;1.08;;;17.80;67.60;;;;;;4986424;28;95795;-35
2021/11/07 11:36:15;;;;;;;2.75;1.08;;;17.90;67.70;;;;;;4986280;28;95353;-40
2021/11/07 11:38:53;;;;;;;2.85;0.90;;;17.80;67.70;;;;;;4985286;28;96945;-40
2021/11/07 11:41:44;;;;;;;2.63;0.77;;;17.90;67.70;;;;;;4985401;28;95933;-41
2021/11/07 11:44:20;;;;;;;2.28;1.00;;;17.80;67.70;;;;;;4986061;28;95595;-40
2021/11/07 11:47:14;;;;;;;2.78;1.58;;;17.80;67.70;;;;;;4987554;28;96070;-38
2021/11/07 11:50:21;;;;;;;2.55;0.98;;;17.80;67.70;;;;;;4988092;28;95270;-36
2021/11/07 12:15:09;;;;;;;1.75;1.00;;;17.80;68.00;;;;;;4985511;28;95922;-36
2021/11/07 12:17:47;;;;;;;1.63;0.90;;;17.80;68.00;;;;;;4985877;28;95791;-38
2021/11/07 12:20:29;;;;;;;2.92;0.98;;;17.80;68.00;;;;;;4986836;28;95533;-37
2021/11/07 12:23:18;;;;;;;;;;;17.80;68.00;;;;;;4986335;28;95805;-41
2021/11/07 12:25:50;;;;;;;4.43;1.10;;;17.80;68.00;;;;;;4987221;28;95888;-41
2021/11/07 12:28:40;;;;;;;1.55;1.00;;;17.80;68.10;;;;;;4981746;28;95929;-38
2021/11/07 12:31:11;;;;;;;1.43;0.80;;;17.70;68.00;;;;;;4975971;28;95766;-34
2021/11/07 12:34:05;;;;;;;2.05;0.70;;;17.70;68.00;;;;;;4987011;28;95588;-42
2021/11/07 12:40:33;;;;;;;1.52;0.85;;;17.70;68.10;;;;;;4987466;28;96397;-40
2021/11/07 12:42:35;;;;;;;1.77;0.73;;;17.70;68.10;;;;;;4987530;28;95760;-41
2021/11/07 12:45:33;;;;;;;3.92;1.52;;;17.70;68.10;;;;;;4990276;28;97502;-37
2021/11/07 12:48:08;;;;;;;1.20;0.88;;;17.70;68.10;;;;;;4987778;28;97193;-38
2021/11/07 12:51:00;;;;;;;3.53;0.80;;;17.70;68.10;;;;;;4987692;28;95489;-38
2021/11/07 12:53:55;;;;;;;3.38;1.20;;;17.70;68.20;;;;;;4988924;28;96010;-37
2021/11/07 12:56:54;;;;;;;1.80;1.00;;;17.60;68.10;;;;;;4990795;28;95752;-41
2021/11/07 12:59:33;;;;;;;2.22;0.98;;;17.70;68.20;;;;;;4988058;28;97009;-40
2021/11/07 13:02:14;;;;;;;3.15;1.10;;;17.70;68.20;;;;;;4989411;28;95758;-37
2021/11/07 13:05:07;;;;;;;2.53;0.90;;;17.70;68.30;;;;;;4989821;28;95751;-39
2021/11/07 13:08:04;;;;;;;1.83;0.60;;;17.60;68.20;;;;;;4989408;28;96489;-37
2021/11/07 13:13:42;;;;;;;2.20;0.98;;;17.60;68.20;;;;;;4989194;28;95606;-39
2021/11/07 13:21:44;;;;;;;2.38;0.90;;;17.60;68.30;;;;;;4987904;28;96605;-40
2021/11/07 13:27:11;;;;;;;3.47;1.13;;;17.60;68.40;;;;;;4990647;28;95532;-38
2021/11/07 13:35:03;;;;;;;3.38;1.00;;;17.60;68.40;;;;;;4989458;28;98426;-37
2021/11/07 13:37:42;;;;;;;1.52;0.90;;;17.60;68.50;;;;;;4987575;28;102056;-37
2021/11/07 13:40:28;;;;;;;2.30;0.93;;;17.60;68.50;;;;;;4988135;28;95942;-39
2021/11/07 13:43:18;;;;;;;1.73;0.55;;;17.60;68.50;;;;;;4985526;28;96041;-36
2021/11/07 13:45:53;;;;;;;0.77;0.70;;;17.60;68.40;;;;;;4988961;28;95750;-41
2021/11/07 13:48:33;;;;;;;2.85;0.82;;;17.60;68.50;;;;;;4983095;27;95943;-38
2021/11/07 13:51:03;;;;;;;1.65;1.08;;;17.60;68.50;;;;;;4984690;28;95269;-39
2021/11/07 13:53:37;;;;;;;;;;;17.50;68.60;;;;;;4988948;28;96043;-38
2021/11/07 13:56:12;;;;;;;3.88;0.90;;;17.50;68.50;;;;;;4990282;28;96111;-39
2021/11/07 13:58:43;;;;;;;2.75;1.02;;;17.50;68.50;;;;;;4988528;28;95779;-40
2021/11/07 14:01:16;;;;;;;1.60;0.90;;;17.60;68.60;;;;;;4989714;28;96080;-38
2021/11/07 14:03:54;;;;;;;2.45;0.60;;;17.50;68.60;;;;;;4990210;28;95839;-39
2021/11/07 14:06:38;;;;;;;1.63;0.80;;;17.50;68.60;;;;;;4988964;28;95796;-39
2021/11/07 14:09:11;;;;;;;1.92;0.88;;;17.50;68.60;;;;;;4988579;28;95967;-37
2021/11/07 14:11:42;;;;;;;1.65;1.10;;;17.50;68.40;;;;;;4988302;28;99742;-34
2021/11/07 14:14:15;;;;;;;4.22;1.70;;;17.40;68.60;;;;;;4983843;28;95896;-40
2021/11/07 14:16:58;;;;;;;5.57;1.20;;;17.40;68.70;;;;;;4979173;28;95416;-39
2021/11/07 14:19:30;;;;;;;4.13;1.42;;;17.40;66.30;;;;;;4982839;28;95417;-41
2021/11/07 14:22:14;;;;;;;4.82;1.30;;;17.30;68.90;;;;;;4980186;28;95848;-39
2021/11/07 14:24:46;;;;;;;1.85;1.17;;;17.30;69.10;;;;;;4979721;28;96045;-41
2021/11/07 14:27:22;;;;;;;2.38;1.00;;;17.30;69.90;;;;;;4984808;28;97990;-41
2021/11/07 14:30:04;;;;;;;4.57;1.30;;;17.30;69.40;;;;;;4976121;28;98073;-39
2021/11/07 14:32:38;;;;;;;2.80;1.00;;;17.20;69.30;;;;;;4979203;28;95344;-38
2021/11/07 14:35:21;;;;;;;4.32;1.23;;;17.20;69.40;;;;;;4976287;28;95659;-40
2021/11/07 14:38:00;;;;;;;5.03;1.67;;;17.20;69.50;;;;;;4984869;28;95655;-39
2021/11/07 14:40:42;;;;;;;4.57;1.08;;;17.20;69.60;;;;;;4988845;28;95823;-37
2021/11/07 14:46:07;;;;;;;3.42;0.85;;;17.10;69.80;;;;;;4988661;28;97792;-40
2021/11/07 15:17:13;;;;;;;3.42;1.23;;;17.00;70.50;;;;;;4985027;28;97125;-36
2021/11/07 15:22:46;;;;;;;5.03;1.25;;;16.90;67.80;;;;;;4984433;28;95413;-37
2021/11/07 15:25:17;;;;;;;3.25;1.42;;;16.90;70.50;;;;;;4985746;28;95580;-39
2021/11/07 15:28:06;;;;;;;3.25;1.42;;;16.90;70.90;;;;;;4985643;28;98258;-39
2021/11/07 15:30:38;;;;;;;3.58;1.30;;;16.90;70.60;;;;;;4976298;28;96186;-37
2021/11/07 15:33:13;;;;;;;5.35;1.35;;;16.90;70.70;;;;;;4985907;28;95453;-37
2021/11/07 15:35:53;;;;;;;5.15;1.50;;;16.90;70.70;;;;;;4985658;28;95910;-36
2021/11/07 15:38:26;;;;;;;3.22;1.58;;;16.80;70.70;;;;;;4987614;28;96071;-35
2021/11/07 15:41:09;;;;;;;3.83;1.20;;;16.80;70.80;;;;;;4988494;28;96413;-34
2021/11/07 15:43:48;;;;;;;4.50;1.40;;;16.90;70.80;;;;;;4988180;28;95795;-35
2021/11/07 15:46:20;;;;;;;5.15;1.48;;;16.80;70.80;;;;;;4988399;28;95923;-37
2021/11/07 15:48:52;;;;;;;3.65;1.25;;;16.80;70.90;;;;;;4988223;28;95509;-38
2021/11/07 15:51:30;;;;;;;3.00;0.93;;;16.80;70.90;;;;;;4986382;28;100670;-39
2021/11/07 15:54:26;;;;;;;6.20;1.30;;;16.80;70.90;;;;;;4986051;28;95706;-41
2021/11/07 16:02:47;;;;;;;2.97;1.30;;;16.80;71.00;;;;;;4984704;28;96470;-42
2021/11/07 16:18:51;;;;;;;4.07;1.83;;;16.70;71.10;;;;;;4986168;28;97569;-35
2021/11/07 16:21:24;;;;;;;5.32;1.30;;;16.70;71.20;;;;;;4989678;28;96517;-35
2021/11/07 16:23:54;;;;;;;8.15;1.77;;;16.60;71.20;;;;;;4988995;28;95878;-36
2021/11/07 16:26:24;;;;;;;3.42;1.48;;;16.60;71.10;;;;;;4987156;28;96041;-41
2021/11/07 16:28:55;;;;;;;5.40;1.70;;;16.70;71.20;;;;;;4979843;28;95896;-36
2021/11/07 16:31:33;;;;;;;4.10;1.20;;;16.60;71.10;;;;;;4984712;28;96871;-34
2021/11/07 16:34:08;;;;;;;3.10;1.40;;;16.70;71.20;;;;;;4988054;28;96076;-36
2021/11/07 16:36:45;;;;;;;4.78;1.70;;;16.70;71.30;;;;;;4989900;28;95734;-38
2021/11/07 16:39:52;;;;;;;3.88;1.50;;;16.60;71.20;;;;;;4988028;28;95856;-37
2021/11/07 16:42:13;;;;;;;5.40;1.45;;;16.60;71.30;;;;;;4988755;28;95376;-36
2021/11/07 16:44:44;;;;;;;3.28;1.10;;;16.60;71.30;;;;;;4988687;28;96557;-37
2021/11/07 16:47:21;;;;;;;3.28;1.00;;;16.60;71.30;;;;;;4991959;28;96331;-37
2021/11/07 16:49:54;;;;;;;4.38;1.60;;;16.60;71.30;;;;;;4984356;28;95673;-40
2021/11/07 16:52:42;;;;;;;2.55;1.08;;;16.60;71.30;;;;;;4991874;28;95811;-41
2021/11/07 16:55:21;;;;;;;4.30;1.42;;;16.60;71.40;;;;;;4990228;28;95915;-40